sensor_id;sensor_type;location;lat;lon;timestamp;P1;durP1;ratioP1;P2;durP2;ratioP2
21183;SDS011;18176;49.502;11.754;2024-01-16T00:02:16;12.47;;;4.97;;
21183;SDS011;18176;49.502;11.754;2024-01-16T00:06:38;9.10;;;5.13;;
21183;SDS011;18176;49.502;11.754;2024-01-16T00:11:04;11.87;;;5.37;;
21183;SDS011;18176;49.502;11.754;2024-01-16T00:15:24;9.90;;;4.90;;
21183;SDS011;18176;49.502;11.754;2024-01-16T00:19:47;7.90;;;4.87;;
21183;SDS011;18176;49.502;11.754;2024-01-16T00:24:08;8.70;;;4.37;;
21183;SDS011;18176;49.502;11.754;2024-01-16T00:28:30;11.67;;;5.50;;
21183;SDS011;18176;49.502;11.754;2024-01-16T00:32:51;12.47;;;4.73;;
21183;SDS011;18176;49.502;11.754;2024-01-16T00:37:15;10.63;;;4.93;;
21183;SDS011;18176;49.502;11.754;2024-01-16T00:41:36;11.27;;;5.07;;
21183;SDS011;18176;49.502;11.754;2024-01-16T00:45:56;11.00;;;4.77;;
21183;SDS011;18176;49.502;11.754;2024-01-16T00:50:17;8.70;;;4.37;;
21183;SDS011;18176;49.502;11.754;2024-01-16T00:54:40;7.63;;;4.57;;
21183;SDS011;18176;49.502;11.754;2024-01-16T00:59:01;11.00;;;4.60;;
21183;SDS011;18176;49.502;11.754;2024-01-16T01:03:22;7.47;;;4.30;;
21183;SDS011;18176;49.502;11.754;2024-01-16T01:07:43;10.37;;;4.70;;
21183;SDS011;18176;49.502;11.754;2024-01-16T01:12:06;9.17;;;4.70;;
21183;SDS011;18176;49.502;11.754;2024-01-16T01:16:27;9.30;;;4.40;;
21183;SDS011;18176;49.502;11.754;2024-01-16T01:20:47;8.67;;;4.27;;
21183;SDS011;18176;49.502;11.754;2024-01-16T01:25:08;9.30;;;4.60;;
21183;SDS011;18176;49.502;11.754;2024-01-16T01:29:32;8.60;;;4.30;;
21183;SDS011;18176;49.502;11.754;2024-01-16T01:33:53;9.93;;;4.57;;
21183;SDS011;18176;49.502;11.754;2024-01-16T01:38:14;7.83;;;4.53;;
21183;SDS011;18176;49.502;11.754;2024-01-16T01:42:36;10.77;;;4.50;;
21183;SDS011;18176;49.502;11.754;2024-01-16T01:46:59;8.70;;;4.30;;
21183;SDS011;18176;49.502;11.754;2024-01-16T01:51:20;8.63;;;4.13;;
21183;SDS011;18176;49.502;11.754;2024-01-16T01:55:41;11.17;;;4.73;;
21183;SDS011;18176;49.502;11.754;2024-01-16T02:00:03;8.70;;;4.10;;
21183;SDS011;18176;49.502;11.754;2024-01-16T02:04:33;9.83;;;4.33;;
21183;SDS011;18176;49.502;11.754;2024-01-16T02:08:56;9.27;;;4.23;;
21183;SDS011;18176;49.502;11.754;2024-01-16T02:13:18;7.87;;;4.07;;
21183;SDS011;18176;49.502;11.754;2024-01-16T02:17:40;8.63;;;4.40;;
21183;SDS011;18176;49.502;11.754;2024-01-16T02:22:04;9.07;;;4.83;;
21183;SDS011;18176;49.502;11.754;2024-01-16T02:26:35;8.53;;;4.30;;
21183;SDS011;18176;49.502;11.754;2024-01-16T02:30:56;8.03;;;4.93;;
21183;SDS011;18176;49.502;11.754;2024-01-16T02:35:16;12.17;;;4.83;;
21183;SDS011;18176;49.502;11.754;2024-01-16T02:39:37;10.20;;;4.93;;
21183;SDS011;18176;49.502;11.754;2024-01-16T02:44:00;10.90;;;5.30;;
21183;SDS011;18176;49.502;11.754;2024-01-16T02:48:21;8.30;;;4.63;;
21183;SDS011;18176;49.502;11.754;2024-01-16T02:52:42;8.67;;;4.83;;
21183;SDS011;18176;49.502;11.754;2024-01-16T02:57:03;8.00;;;4.57;;
21183;SDS011;18176;49.502;11.754;2024-01-16T03:01:26;8.13;;;4.53;;
21183;SDS011;18176;49.502;11.754;2024-01-16T03:05:47;10.63;;;4.73;;
21183;SDS011;18176;49.502;11.754;2024-01-16T03:10:08;10.97;;;5.50;;
21183;SDS011;18176;49.502;11.754;2024-01-16T03:14:29;12.30;;;5.27;;
21183;SDS011;18176;49.502;11.754;2024-01-16T03:18:55;12.53;;;5.40;;
21183;SDS011;18176;49.502;11.754;2024-01-16T03:23:16;11.87;;;5.90;;
21183;SDS011;18176;49.502;11.754;2024-01-16T03:27:37;12.70;;;5.57;;
21183;SDS011;18176;49.502;11.754;2024-01-16T03:31:57;10.40;;;6.10;;
21183;SDS011;18176;49.502;11.754;2024-01-16T03:36:20;9.30;;;5.63;;
21183;SDS011;18176;49.502;11.754;2024-01-16T03:40:41;11.80;;;6.13;;
21183;SDS011;18176;49.502;11.754;2024-01-16T03:45:02;10.17;;;6.00;;
21183;SDS011;18176;49.502;11.754;2024-01-16T03:49:25;14.43;;;6.53;;
21183;SDS011;18176;49.502;11.754;2024-01-16T03:53:48;14.13;;;5.80;;
21183;SDS011;18176;49.502;11.754;2024-01-16T03:58:09;12.77;;;6.13;;
21183;SDS011;18176;49.502;11.754;2024-01-16T04:02:29;14.37;;;6.27;;
21183;SDS011;18176;49.502;11.754;2024-01-16T04:06:50;10.43;;;6.13;;
21183;SDS011;18176;49.502;11.754;2024-01-16T04:11:14;11.50;;;5.60;;
21183;SDS011;18176;49.502;11.754;2024-01-16T04:15:37;12.30;;;6.40;;
21183;SDS011;18176;49.502;11.754;2024-01-16T04:19:58;13.97;;;6.73;;
21183;SDS011;18176;49.502;11.754;2024-01-16T04:24:19;11.87;;;6.53;;
21183;SDS011;18176;49.502;11.754;2024-01-16T04:28:43;11.50;;;6.40;;
21183;SDS011;18176;49.502;11.754;2024-01-16T04:33:03;11.20;;;6.30;;
21183;SDS011;18176;49.502;11.754;2024-01-16T04:37:25;12.93;;;6.87;;
21183;SDS011;18176;49.502;11.754;2024-01-16T04:41:45;12.53;;;6.57;;
21183;SDS011;18176;49.502;11.754;2024-01-16T04:46:09;13.93;;;6.40;;
21183;SDS011;18176;49.502;11.754;2024-01-16T04:50:29;12.27;;;6.63;;
21183;SDS011;18176;49.502;11.754;2024-01-16T04:54:51;13.67;;;6.53;;
21183;SDS011;18176;49.502;11.754;2024-01-16T04:59:11;14.40;;;7.10;;
21183;SDS011;18176;49.502;11.754;2024-01-16T05:03:35;13.87;;;6.63;;
21183;SDS011;18176;49.502;11.754;2024-01-16T05:07:56;12.00;;;6.67;;
21183;SDS011;18176;49.502;11.754;2024-01-16T05:12:17;15.53;;;6.90;;
21183;SDS011;18176;49.502;11.754;2024-01-16T05:16:39;15.50;;;6.77;;
21183;SDS011;18176;49.502;11.754;2024-01-16T05:21:03;15.33;;;6.60;;
21183;SDS011;18176;49.502;11.754;2024-01-16T05:25:24;15.47;;;6.77;;
21183;SDS011;18176;49.502;11.754;2024-01-16T05:29:45;13.40;;;6.27;;
21183;SDS011;18176;49.502;11.754;2024-01-16T05:34:06;11.70;;;6.73;;
21183;SDS011;18176;49.502;11.754;2024-01-16T05:38:29;13.43;;;7.00;;
21183;SDS011;18176;49.502;11.754;2024-01-16T05:42:50;19.27;;;7.13;;
21183;SDS011;18176;49.502;11.754;2024-01-16T05:47:12;12.93;;;7.03;;
21183;SDS011;18176;49.502;11.754;2024-01-16T05:51:33;11.63;;;7.30;;
21183;SDS011;18176;49.502;11.754;2024-01-16T05:55:56;15.23;;;6.43;;
21183;SDS011;18176;49.502;11.754;2024-01-16T06:00:17;13.53;;;6.90;;
21183;SDS011;18176;49.502;11.754;2024-01-16T06:04:39;12.10;;;6.33;;
21183;SDS011;18176;49.502;11.754;2024-01-16T06:09:00;13.43;;;7.00;;
21183;SDS011;18176;49.502;11.754;2024-01-16T06:13:24;13.97;;;7.10;;
21183;SDS011;18176;49.502;11.754;2024-01-16T06:17:47;14.00;;;6.93;;
21183;SDS011;18176;49.502;11.754;2024-01-16T06:22:07;12.23;;;6.43;;
21183;SDS011;18176;49.502;11.754;2024-01-16T06:26:28;13.63;;;7.33;;
21183;SDS011;18176;49.502;11.754;2024-01-16T06:30:51;13.20;;;6.53;;
21183;SDS011;18176;49.502;11.754;2024-01-16T06:35:12;12.67;;;6.50;;
21183;SDS011;18176;49.502;11.754;2024-01-16T06:39:33;15.53;;;6.97;;
21183;SDS011;18176;49.502;11.754;2024-01-16T06:43:55;13.30;;;8.00;;
21183;SDS011;18176;49.502;11.754;2024-01-16T06:48:18;14.77;;;7.40;;
21183;SDS011;18176;49.502;11.754;2024-01-16T06:52:39;12.50;;;7.43;;
21183;SDS011;18176;49.502;11.754;2024-01-16T06:57:00;12.23;;;6.63;;
21183;SDS011;18176;49.502;11.754;2024-01-16T07:01:20;16.03;;;7.10;;
21183;SDS011;18176;49.502;11.754;2024-01-16T07:05:44;11.90;;;6.67;;
21183;SDS011;18176;49.502;11.754;2024-01-16T07:10:05;12.93;;;6.73;;
21183;SDS011;18176;49.502;11.754;2024-01-16T07:14:30;13.93;;;7.23;;
21183;SDS011;18176;49.502;11.754;2024-01-16T07:18:52;14.10;;;6.47;;
21183;SDS011;18176;49.502;11.754;2024-01-16T07:23:15;16.37;;;6.93;;
21183;SDS011;18176;49.502;11.754;2024-01-16T07:27:36;12.10;;;6.73;;
21183;SDS011;18176;49.502;11.754;2024-01-16T07:31:57;11.47;;;7.07;;
21183;SDS011;18176;49.502;11.754;2024-01-16T07:36:18;14.97;;;7.17;;
21183;SDS011;18176;49.502;11.754;2024-01-16T07:40:41;13.20;;;7.43;;
21183;SDS011;18176;49.502;11.754;2024-01-16T07:45:03;13.00;;;7.30;;
21183;SDS011;18176;49.502;11.754;2024-01-16T07:49:24;12.27;;;6.97;;
21183;SDS011;18176;49.502;11.754;2024-01-16T07:53:45;14.37;;;7.23;;
21183;SDS011;18176;49.502;11.754;2024-01-16T07:58:10;21.30;;;8.83;;
21183;SDS011;18176;49.502;11.754;2024-01-16T08:02:31;17.67;;;7.60;;
21183;SDS011;18176;49.502;11.754;2024-01-16T08:06:54;15.00;;;8.17;;
21183;SDS011;18176;49.502;11.754;2024-01-16T08:11:15;13.17;;;7.57;;
21183;SDS011;18176;49.502;11.754;2024-01-16T08:15:41;15.13;;;7.33;;
21183;SDS011;18176;49.502;11.754;2024-01-16T08:20:01;15.30;;;8.53;;
21183;SDS011;18176;49.502;11.754;2024-01-16T08:24:23;12.40;;;7.60;;
21183;SDS011;18176;49.502;11.754;2024-01-16T08:28:43;16.33;;;7.43;;
21183;SDS011;18176;49.502;11.754;2024-01-16T08:33:06;14.63;;;7.17;;
21183;SDS011;18176;49.502;11.754;2024-01-16T08:37:28;12.93;;;7.13;;
21183;SDS011;18176;49.502;11.754;2024-01-16T08:41:49;15.13;;;7.17;;
21183;SDS011;18176;49.502;11.754;2024-01-16T08:46:09;13.87;;;7.10;;
21183;SDS011;18176;49.502;11.754;2024-01-16T08:50:32;13.53;;;7.10;;
21183;SDS011;18176;49.502;11.754;2024-01-16T08:54:54;14.53;;;7.60;;
21183;SDS011;18176;49.502;11.754;2024-01-16T08:59:15;13.07;;;6.70;;
21183;SDS011;18176;49.502;11.754;2024-01-16T09:03:36;14.37;;;7.37;;
21183;SDS011;18176;49.502;11.754;2024-01-16T09:07:59;12.13;;;6.83;;
21183;SDS011;18176;49.502;11.754;2024-01-16T09:12:20;11.83;;;6.60;;
21183;SDS011;18176;49.502;11.754;2024-01-16T09:16:41;11.50;;;6.63;;
21183;SDS011;18176;49.502;11.754;2024-01-16T09:21:02;12.63;;;6.37;;
21183;SDS011;18176;49.502;11.754;2024-01-16T09:25:26;12.13;;;6.50;;
21183;SDS011;18176;49.502;11.754;2024-01-16T09:29:47;12.87;;;6.60;;
21183;SDS011;18176;49.502;11.754;2024-01-16T09:34:08;16.90;;;7.03;;
21183;SDS011;18176;49.502;11.754;2024-01-16T09:38:30;12.33;;;7.20;;
21183;SDS011;18176;49.502;11.754;2024-01-16T09:42:53;15.23;;;6.77;;
21183;SDS011;18176;49.502;11.754;2024-01-16T09:47:14;15.37;;;6.57;;
21183;SDS011;18176;49.502;11.754;2024-01-16T09:51:37;11.80;;;7.07;;
21183;SDS011;18176;49.502;11.754;2024-01-16T09:55:58;18.33;;;7.27;;
21183;SDS011;18176;49.502;11.754;2024-01-16T10:00:26;15.33;;;6.90;;
21183;SDS011;18176;49.502;11.754;2024-01-16T10:04:48;13.73;;;6.97;;
21183;SDS011;18176;49.502;11.754;2024-01-16T10:09:09;19.07;;;9.00;;
21183;SDS011;18176;49.502;11.754;2024-01-16T10:13:29;20.00;;;7.53;;
21183;SDS011;18176;49.502;11.754;2024-01-16T10:17:55;14.33;;;7.10;;
21183;SDS011;18176;49.502;11.754;2024-01-16T10:22:20;13.10;;;6.93;;
21183;SDS011;18176;49.502;11.754;2024-01-16T10:26:43;15.67;;;7.00;;
21183;SDS011;18176;49.502;11.754;2024-01-16T10:31:04;11.57;;;6.80;;
21183;SDS011;18176;49.502;11.754;2024-01-16T10:35:30;16.70;;;6.97;;
21183;SDS011;18176;49.502;11.754;2024-01-16T10:39:50;14.43;;;7.00;;
21183;SDS011;18176;49.502;11.754;2024-01-16T10:44:11;12.43;;;6.57;;
21183;SDS011;18176;49.502;11.754;2024-01-16T10:48:32;12.60;;;6.47;;
21183;SDS011;18176;49.502;11.754;2024-01-16T10:52:55;13.50;;;6.80;;
21183;SDS011;18176;49.502;11.754;2024-01-16T10:57:23;13.30;;;6.93;;
21183;SDS011;18176;49.502;11.754;2024-01-16T11:01:48;11.37;;;6.53;;
21183;SDS011;18176;49.502;11.754;2024-01-16T11:06:14;13.50;;;6.90;;
21183;SDS011;18176;49.502;11.754;2024-01-16T11:10:41;13.30;;;6.87;;
21183;SDS011;18176;49.502;11.754;2024-01-16T11:15:03;13.80;;;6.87;;
21183;SDS011;18176;49.502;11.754;2024-01-16T11:19:27;11.00;;;6.97;;
21183;SDS011;18176;49.502;11.754;2024-01-16T11:23:53;12.17;;;6.57;;
21183;SDS011;18176;49.502;11.754;2024-01-16T11:28:16;14.73;;;7.30;;
21183;SDS011;18176;49.502;11.754;2024-01-16T11:32:38;15.07;;;6.90;;
21183;SDS011;18176;49.502;11.754;2024-01-16T11:37:01;15.47;;;7.17;;
21183;SDS011;18176;49.502;11.754;2024-01-16T11:41:47;13.03;;;6.63;;
21183;SDS011;18176;49.502;11.754;2024-01-16T11:46:12;18.33;;;7.83;;
21183;SDS011;18176;49.502;11.754;2024-01-16T11:50:33;14.03;;;7.20;;
21183;SDS011;18176;49.502;11.754;2024-01-16T11:54:54;16.83;;;7.17;;
21183;SDS011;18176;49.502;11.754;2024-01-16T11:59:25;13.97;;;6.80;;
21183;SDS011;18176;49.502;11.754;2024-01-16T12:04:15;15.37;;;6.60;;
21183;SDS011;18176;49.502;11.754;2024-01-16T12:08:37;12.63;;;6.87;;
21183;SDS011;18176;49.502;11.754;2024-01-16T12:12:58;12.87;;;6.47;;
21183;SDS011;18176;49.502;11.754;2024-01-16T12:17:21;14.60;;;6.57;;
21183;SDS011;18176;49.502;11.754;2024-01-16T12:21:46;14.27;;;6.17;;
21183;SDS011;18176;49.502;11.754;2024-01-16T12:26:06;15.00;;;6.60;;
21183;SDS011;18176;49.502;11.754;2024-01-16T12:30:28;13.50;;;6.47;;
21183;SDS011;18176;49.502;11.754;2024-01-16T12:34:50;10.17;;;6.00;;
21183;SDS011;18176;49.502;11.754;2024-01-16T12:39:15;12.23;;;5.97;;
21183;SDS011;18176;49.502;11.754;2024-01-16T12:43:40;9.87;;;5.47;;
21183;SDS011;18176;49.502;11.754;2024-01-16T12:48:03;11.03;;;5.63;;
21183;SDS011;18176;49.502;11.754;2024-01-16T12:52:25;10.70;;;5.30;;
21183;SDS011;18176;49.502;11.754;2024-01-16T12:56:57;12.00;;;4.73;;
21183;SDS011;18176;49.502;11.754;2024-01-16T13:01:21;10.17;;;5.10;;
21183;SDS011;18176;49.502;11.754;2024-01-16T13:05:57;9.63;;;4.50;;
21183;SDS011;18176;49.502;11.754;2024-01-16T13:10:21;12.43;;;5.33;;
21183;SDS011;18176;49.502;11.754;2024-01-16T13:14:45;12.10;;;5.90;;
21183;SDS011;18176;49.502;11.754;2024-01-16T13:19:05;11.93;;;6.00;;
21183;SDS011;18176;49.502;11.754;2024-01-16T13:23:28;8.10;;;5.40;;
21183;SDS011;18176;49.502;11.754;2024-01-16T13:27:49;11.10;;;4.93;;
21183;SDS011;18176;49.502;11.754;2024-01-16T13:32:13;10.03;;;5.13;;
21183;SDS011;18176;49.502;11.754;2024-01-16T13:36:33;11.83;;;5.63;;
21183;SDS011;18176;49.502;11.754;2024-01-16T13:41:14;10.63;;;4.97;;
21183;SDS011;18176;49.502;11.754;2024-01-16T13:45:35;8.63;;;4.80;;
21183;SDS011;18176;49.502;11.754;2024-01-16T13:49:58;9.73;;;4.20;;
21183;SDS011;18176;49.502;11.754;2024-01-16T13:54:20;13.10;;;5.00;;
21183;SDS011;18176;49.502;11.754;2024-01-16T13:58:43;9.47;;;5.27;;
21183;SDS011;18176;49.502;11.754;2024-01-16T14:03:04;12.07;;;5.40;;
21183;SDS011;18176;49.502;11.754;2024-01-16T14:07:28;14.90;;;6.50;;
21183;SDS011;18176;49.502;11.754;2024-01-16T14:11:48;11.87;;;5.17;;
21183;SDS011;18176;49.502;11.754;2024-01-16T14:16:09;10.90;;;5.37;;
21183;SDS011;18176;49.502;11.754;2024-01-16T14:20:35;10.03;;;4.57;;
21183;SDS011;18176;49.502;11.754;2024-01-16T14:24:58;15.67;;;6.33;;
21183;SDS011;18176;49.502;11.754;2024-01-16T14:29:19;10.63;;;5.07;;
21183;SDS011;18176;49.502;11.754;2024-01-16T14:33:40;16.87;;;6.07;;
21183;SDS011;18176;49.502;11.754;2024-01-16T14:38:01;16.43;;;6.67;;
21183;SDS011;18176;49.502;11.754;2024-01-16T14:42:25;14.40;;;5.90;;
21183;SDS011;18176;49.502;11.754;2024-01-16T14:46:46;17.87;;;7.17;;
21183;SDS011;18176;49.502;11.754;2024-01-16T14:51:09;21.10;;;8.50;;
21183;SDS011;18176;49.502;11.754;2024-01-16T14:55:30;24.07;;;8.77;;
21183;SDS011;18176;49.502;11.754;2024-01-16T14:59:53;25.23;;;9.60;;
21183;SDS011;18176;49.502;11.754;2024-01-16T15:04:14;20.37;;;8.13;;
21183;SDS011;18176;49.502;11.754;2024-01-16T15:08:35;25.87;;;9.93;;
21183;SDS011;18176;49.502;11.754;2024-01-16T15:12:56;20.43;;;9.23;;
21183;SDS011;18176;49.502;11.754;2024-01-16T15:17:20;18.70;;;9.10;;
21183;SDS011;18176;49.502;11.754;2024-01-16T15:21:40;16.47;;;9.07;;
21183;SDS011;18176;49.502;11.754;2024-01-16T15:26:02;19.57;;;8.93;;
21183;SDS011;18176;49.502;11.754;2024-01-16T15:30:23;22.17;;;9.50;;
21183;SDS011;18176;49.502;11.754;2024-01-16T15:34:51;16.87;;;7.17;;
21183;SDS011;18176;49.502;11.754;2024-01-16T15:39:12;19.03;;;8.20;;
21183;SDS011;18176;49.502;11.754;2024-01-16T15:43:34;22.57;;;12.93;;
21183;SDS011;18176;49.502;11.754;2024-01-16T15:47:55;15.10;;;7.63;;
21183;SDS011;18176;49.502;11.754;2024-01-16T15:52:19;14.97;;;7.23;;
21183;SDS011;18176;49.502;11.754;2024-01-16T15:56:40;12.83;;;6.63;;
21183;SDS011;18176;49.502;11.754;2024-01-16T16:01:01;19.23;;;8.73;;
21183;SDS011;18176;49.502;11.754;2024-01-16T16:05:22;13.63;;;7.47;;
21183;SDS011;18176;49.502;11.754;2024-01-16T16:09:45;17.57;;;8.87;;
21183;SDS011;18176;49.502;11.754;2024-01-16T16:14:06;16.40;;;8.57;;
21183;SDS011;18176;49.502;11.754;2024-01-16T16:18:27;15.73;;;8.10;;
21183;SDS011;18176;49.502;11.754;2024-01-16T16:22:51;15.00;;;9.00;;
21183;SDS011;18176;49.502;11.754;2024-01-16T16:27:24;23.17;;;10.93;;
21183;SDS011;18176;49.502;11.754;2024-01-16T16:31:47;16.27;;;8.60;;
21183;SDS011;18176;49.502;11.754;2024-01-16T16:36:07;17.50;;;7.93;;
21183;SDS011;18176;49.502;11.754;2024-01-16T16:40:28;21.40;;;10.07;;
21183;SDS011;18176;49.502;11.754;2024-01-16T16:44:52;26.50;;;10.97;;
21183;SDS011;18176;49.502;11.754;2024-01-16T16:49:12;24.83;;;12.50;;
21183;SDS011;18176;49.502;11.754;2024-01-16T16:53:34;28.97;;;14.13;;
21183;SDS011;18176;49.502;11.754;2024-01-16T16:58:00;33.30;;;16.37;;
21183;SDS011;18176;49.502;11.754;2024-01-16T17:02:27;24.43;;;13.70;;
21183;SDS011;18176;49.502;11.754;2024-01-16T17:06:48;25.67;;;12.60;;
21183;SDS011;18176;49.502;11.754;2024-01-16T17:11:11;21.97;;;10.93;;
21183;SDS011;18176;49.502;11.754;2024-01-16T17:15:32;35.17;;;15.63;;
21183;SDS011;18176;49.502;11.754;2024-01-16T17:19:56;39.17;;;16.07;;
21183;SDS011;18176;49.502;11.754;2024-01-16T17:24:17;31.37;;;13.77;;
21183;SDS011;18176;49.502;11.754;2024-01-16T17:28:38;58.43;;;21.70;;
21183;SDS011;18176;49.502;11.754;2024-01-16T17:32:58;44.40;;;19.90;;
21183;SDS011;18176;49.502;11.754;2024-01-16T17:37:26;33.77;;;16.47;;
21183;SDS011;18176;49.502;11.754;2024-01-16T17:41:46;30.77;;;14.73;;
21183;SDS011;18176;49.502;11.754;2024-01-16T17:46:07;25.37;;;13.43;;
21183;SDS011;18176;49.502;11.754;2024-01-16T17:50:28;35.73;;;18.70;;
21183;SDS011;18176;49.502;11.754;2024-01-16T17:54:51;35.20;;;18.80;;
21183;SDS011;18176;49.502;11.754;2024-01-16T17:59:12;22.83;;;12.53;;
21183;SDS011;18176;49.502;11.754;2024-01-16T18:03:33;27.63;;;14.27;;
21183;SDS011;18176;49.502;11.754;2024-01-16T18:08:02;32.27;;;17.60;;
21183;SDS011;18176;49.502;11.754;2024-01-16T18:12:28;37.37;;;15.53;;
21183;SDS011;18176;49.502;11.754;2024-01-16T18:16:50;34.07;;;16.27;;
21183;SDS011;18176;49.502;11.754;2024-01-16T18:21:11;35.07;;;15.60;;
21183;SDS011;18176;49.502;11.754;2024-01-16T18:25:31;30.37;;;15.37;;
21183;SDS011;18176;49.502;11.754;2024-01-16T18:29:55;22.60;;;12.03;;
21183;SDS011;18176;49.502;11.754;2024-01-16T18:34:16;24.57;;;10.87;;
21183;SDS011;18176;49.502;11.754;2024-01-16T18:38:39;31.77;;;16.17;;
21183;SDS011;18176;49.502;11.754;2024-01-16T18:43:02;47.20;;;22.67;;
21183;SDS011;18176;49.502;11.754;2024-01-16T18:47:27;47.13;;;24.13;;
21183;SDS011;18176;49.502;11.754;2024-01-16T18:51:48;44.77;;;22.00;;
21183;SDS011;18176;49.502;11.754;2024-01-16T18:56:12;48.83;;;23.77;;
21183;SDS011;18176;49.502;11.754;2024-01-16T19:00:35;49.90;;;22.33;;
21183;SDS011;18176;49.502;11.754;2024-01-16T19:04:59;48.00;;;19.80;;
21183;SDS011;18176;49.502;11.754;2024-01-16T19:09:20;33.77;;;18.00;;
21183;SDS011;18176;49.502;11.754;2024-01-16T19:13:43;28.97;;;14.70;;
21183;SDS011;18176;49.502;11.754;2024-01-16T19:18:07;21.77;;;12.13;;
21183;SDS011;18176;49.502;11.754;2024-01-16T19:22:31;34.37;;;15.67;;
21183;SDS011;18176;49.502;11.754;2024-01-16T19:26:51;26.00;;;13.60;;
21183;SDS011;18176;49.502;11.754;2024-01-16T19:31:15;27.63;;;13.97;;
21183;SDS011;18176;49.502;11.754;2024-01-16T19:35:36;29.77;;;15.60;;
21183;SDS011;18176;49.502;11.754;2024-01-16T19:39:59;38.20;;;18.27;;
21183;SDS011;18176;49.502;11.754;2024-01-16T19:44:20;44.07;;;19.33;;
21183;SDS011;18176;49.502;11.754;2024-01-16T19:48:41;37.03;;;18.93;;
21183;SDS011;18176;49.502;11.754;2024-01-16T19:53:03;33.40;;;15.73;;
21183;SDS011;18176;49.502;11.754;2024-01-16T19:57:27;69.33;;;33.90;;
21183;SDS011;18176;49.502;11.754;2024-01-16T20:01:48;80.10;;;36.73;;
21183;SDS011;18176;49.502;11.754;2024-01-16T20:06:10;48.63;;;23.27;;
21183;SDS011;18176;49.502;11.754;2024-01-16T20:10:31;32.83;;;16.77;;
21183;SDS011;18176;49.502;11.754;2024-01-16T20:14:57;61.63;;;30.33;;
21183;SDS011;18176;49.502;11.754;2024-01-16T20:19:23;68.37;;;29.77;;
21183;SDS011;18176;49.502;11.754;2024-01-16T20:23:43;67.77;;;26.73;;
21183;SDS011;18176;49.502;11.754;2024-01-16T20:28:05;65.93;;;28.40;;
21183;SDS011;18176;49.502;11.754;2024-01-16T20:32:28;58.40;;;24.60;;
21183;SDS011;18176;49.502;11.754;2024-01-16T20:36:49;52.53;;;24.80;;
21183;SDS011;18176;49.502;11.754;2024-01-16T20:41:13;52.50;;;23.50;;
21183;SDS011;18176;49.502;11.754;2024-01-16T20:45:35;129.80;;;54.83;;
21183;SDS011;18176;49.502;11.754;2024-01-16T20:49:58;87.87;;;38.67;;
21183;SDS011;18176;49.502;11.754;2024-01-16T20:54:21;78.73;;;32.73;;
21183;SDS011;18176;49.502;11.754;2024-01-16T20:58:42;83.07;;;35.47;;
21183;SDS011;18176;49.502;11.754;2024-01-16T21:03:03;70.47;;;30.83;;
21183;SDS011;18176;49.502;11.754;2024-01-16T21:07:30;62.73;;;27.70;;
21183;SDS011;18176;49.502;11.754;2024-01-16T21:11:51;62.13;;;27.27;;
21183;SDS011;18176;49.502;11.754;2024-01-16T21:16:11;59.27;;;26.50;;
21183;SDS011;18176;49.502;11.754;2024-01-16T21:20:33;58.60;;;26.10;;
21183;SDS011;18176;49.502;11.754;2024-01-16T21:24:56;56.93;;;26.13;;
21183;SDS011;18176;49.502;11.754;2024-01-16T21:29:17;55.83;;;26.50;;
21183;SDS011;18176;49.502;11.754;2024-01-16T21:33:40;62.33;;;27.80;;
21183;SDS011;18176;49.502;11.754;2024-01-16T21:38:01;65.17;;;28.90;;
21183;SDS011;18176;49.502;11.754;2024-01-16T21:42:27;60.43;;;27.97;;
21183;SDS011;18176;49.502;11.754;2024-01-16T21:46:49;59.87;;;26.20;;
21183;SDS011;18176;49.502;11.754;2024-01-16T21:51:12;66.20;;;28.70;;
21183;SDS011;18176;49.502;11.754;2024-01-16T21:55:34;54.73;;;25.67;;
21183;SDS011;18176;49.502;11.754;2024-01-16T21:59:59;57.80;;;25.93;;
21183;SDS011;18176;49.502;11.754;2024-01-16T22:04:24;55.03;;;24.07;;
21183;SDS011;18176;49.502;11.754;2024-01-16T22:08:49;49.23;;;22.97;;
21183;SDS011;18176;49.502;11.754;2024-01-16T22:13:14;63.70;;;24.93;;
21183;SDS011;18176;49.502;11.754;2024-01-16T22:17:38;67.40;;;26.17;;
21183;SDS011;18176;49.502;11.754;2024-01-16T22:21:59;73.27;;;29.10;;
21183;SDS011;18176;49.502;11.754;2024-01-16T22:26:20;61.83;;;23.93;;
21183;SDS011;18176;49.502;11.754;2024-01-16T22:30:41;55.30;;;24.53;;
21183;SDS011;18176;49.502;11.754;2024-01-16T22:35:04;61.77;;;25.83;;
21183;SDS011;18176;49.502;11.754;2024-01-16T22:39:26;63.10;;;26.47;;
21183;SDS011;18176;49.502;11.754;2024-01-16T22:43:47;73.63;;;27.20;;
21183;SDS011;18176;49.502;11.754;2024-01-16T22:48:07;65.87;;;26.53;;
21183;SDS011;18176;49.502;11.754;2024-01-16T22:52:31;71.63;;;28.30;;
21183;SDS011;18176;49.502;11.754;2024-01-16T22:56:52;66.70;;;27.30;;
21183;SDS011;18176;49.502;11.754;2024-01-16T23:01:13;63.03;;;25.63;;
21183;SDS011;18176;49.502;11.754;2024-01-16T23:05:34;78.57;;;28.30;;
21183;SDS011;18176;49.502;11.754;2024-01-16T23:09:58;73.37;;;28.40;;
21183;SDS011;18176;49.502;11.754;2024-01-16T23:14:19;73.00;;;26.60;;
21183;SDS011;18176;49.502;11.754;2024-01-16T23:18:40;56.40;;;24.30;;
21183;SDS011;18176;49.502;11.754;2024-01-16T23:23:03;48.97;;;23.30;;
21183;SDS011;18176;49.502;11.754;2024-01-16T23:27:31;46.60;;;20.80;;
21183;SDS011;18176;49.502;11.754;2024-01-16T23:31:52;43.87;;;19.37;;
21183;SDS011;18176;49.502;11.754;2024-01-16T23:36:12;60.37;;;22.07;;
21183;SDS011;18176;49.502;11.754;2024-01-16T23:40:33;49.90;;;20.33;;
21183;SDS011;18176;49.502;11.754;2024-01-16T23:44:56;52.47;;;18.53;;
21183;SDS011;18176;49.502;11.754;2024-01-16T23:49:23;55.87;;;20.33;;
21183;SDS011;18176;49.502;11.754;2024-01-16T23:53:44;64.57;;;21.43;;
21183;SDS011;18176;49.502;11.754;2024-01-16T23:58:05;51.57;;;21.97;;
